x

Sombrero Key, Fl (smkf1) Weather Station

8:00am - Mon 21st Apr 2014 All times are CDT. -4 hours from GMT.

  • Wind
    20mph, 21mph gusts
  • Air Temp 70°f
  • Sea Pressure 1016.7mb
  • Sombrero Key, Fl
  • Sombrero Key, Fl

More Historic Weather Station data

Upgrade to MSW Pro to gain access to the past 30 days of data for over 8000 Wavebouys and Weather Stations around the globe.

Join Pro

Comparision Forecast

View Surf forecast
   
Mon 04/21 8:00am 20 21 mph 1016.7mb 70f
7:00am 17
mph
1016.3mb 70f
6:00am 17
mph
1016mb 71f
5:00am 17 18 mph 1015.8mb 72f
4:00am 14
mph
1015.9mb 72f
3:00am 15 16 mph 1016.1mb 73f
2:00am 8 10 mph 1016.6mb 74f
1:00am 6 7 mph 1017.4mb 73f
12:00am 8 10 mph 1017.9mb 73f
Sun 04/20 11:00pm 10 14 mph 1018mb 73f
10:00pm 10 11 mph 1017.8mb 73f
9:00pm 13 15 mph 1017.2mb 73f
8:00pm 14
mph
1016.9mb 73f
7:00pm 15 16 mph 1016.7mb 72f
6:00pm 14 16 mph 1016.7mb 73f
5:00pm 17 18 mph 1016.7mb 73f
4:00pm 17 18 mph 1017.1mb 73f
3:00pm 16 20 mph 1017.5mb 73f
2:00pm 14 15 mph 1017.9mb 73f
1:00pm 16 17 mph 1018mb 73f
12:00pm 15 17 mph 1018.2mb 73f
11:00am 18 20 mph 1018.3mb 73f
10:00am 15 18 mph 1017.9mb 73f
9:00am 16 17 mph 1017.7mb 73f
8:00am 18 21 mph 1017.3mb 73f
7:00am 20 22 mph 1016.3mb 73f
6:00am 20 21 mph 1015.8mb 73f
5:00am 14 16 mph 1015.8mb 73f
4:00am 14 16 mph 1015.9mb 73f
3:00am 16 20 mph 1016.2mb 73f
2:00am 18 22 mph 1016.5mb 73f
1:00am 20 23 mph 1017mb 73f
12:00am 18 20 mph 1017.3mb 74f
Sat 04/19 11:00pm 17 18 mph 1017.3mb 74f
10:00pm 16 21 mph 1016.8mb 75f
9:00pm 18 21 mph 1016.2mb 75f
8:00pm 23 26 mph 1015.1mb 76f
7:00pm 22 24 mph 1014.6mb 76f
6:00pm 21 22 mph 1014.7mb 77f
5:00pm 20 21 mph 1014.4mb 78f
4:00pm 15 16 mph 1014.6mb 78f
3:00pm 7 8 mph 1015.2mb 78f
2:00pm 9 10 mph 1015.6mb 77f
1:00pm 13 15 mph 1016mb 77f
12:00pm 15 16 mph 1016.4mb 77f
11:00am 20 22 mph 1016.1mb 78f
10:00am 16 17 mph 1015.9mb 79f
9:00am 16 17 mph 1015.5mb 78f
8:00am 16 17 mph 1015.1mb 78f
7:00am 15 16 mph 1014.5mb 78f
6:00am 15 16 mph 1014.1mb 78f
5:00am 16 17 mph 1014mb 79f
4:00am 18 20 mph 1013.8mb 79f
3:00am 23 25 mph 1013.6mb 79f
2:00am 18 21 mph 1014.8mb 79f
1:00am 23 24 mph 1015.2mb 79f
12:00am 21 22 mph 1015.8mb 79f
Fri 04/18 11:00pm 23 25 mph 1015.7mb 79f
10:00pm 22 23 mph 1015.4mb 79f
9:00pm 16 17 mph 1015.4mb 79f
8:00pm 14 15 mph 1015.3mb 79f
7:00pm 13 14 mph 1015.2mb 82f
6:00pm 13
mph
1015.4mb 82f
5:00pm 11
mph
1016mb 82f
4:00pm 14 15 mph 1016.3mb 81f
3:00pm 17 20 mph 1016.5mb 81f
2:00pm 18 21 mph 1017mb 81f
1:00pm 21 22 mph 1017.1mb 80f
12:00pm 17 18 mph 1017.9mb 80f
11:00am 24 25 mph 1017.7mb 78f
10:00am 23 25 mph 1017.7mb 80f
9:00am 22 23 mph 1017.9mb 79f
8:00am 22 24 mph 1017.7mb 79f
7:00am 23 24 mph 1016.5mb 79f
6:00am 23 24 mph 1015.8mb 78f
5:00am 21 23 mph 1016.3mb 78f
4:00am 22 23 mph 1016.5mb 78f
3:00am 24 25 mph 1016.7mb 79f
2:00am 22 24 mph 1017.3mb 79f
1:00am 16 17 mph 1017.8mb 78f
12:00am 18 20 mph 1018.5mb 78f
Thu 04/17 11:00pm 24 26 mph 1018mb 78f
10:00pm 23 24 mph 1017.8mb 78f
9:00pm 21 23 mph 1017.6mb 78f
8:00pm 21 22 mph 1017.1mb 79f
7:00pm 21 22 mph 1017.2mb 79f
6:00pm 21 22 mph 1017.4mb 80f
5:00pm 18 20 mph 1017.3mb 80f
4:00pm 17 18 mph 1017.6mb 80f
3:00pm 15 16 mph 1018.4mb 80f
2:00pm 10
mph
1019.3mb 80f